高雄國際航空站 - 塔台/地面席

METAR RCKH 181200Z 36005KT 330V030 9999 FEW015 SCT030 19/12 Q1018 NOSIG RMK A3008=

站台狀態:Online
最後更新:2020-01-18 20:00:01